sensor_id;sensor_type;location;lat;lon;timestamp;temperature;humidity
42905;DHT22;28550;51.228;4.528;2023-08-06T00:01:35;15.30;99.90
42905;DHT22;28550;51.228;4.528;2023-08-06T00:04:01;15.40;99.90
42905;DHT22;28550;51.228;4.528;2023-08-06T00:06:30;15.50;99.90
42905;DHT22;28550;51.228;4.528;2023-08-06T00:08:56;15.50;99.90
42905;DHT22;28550;51.228;4.528;2023-08-06T00:11:23;15.60;99.90
42905;DHT22;28550;51.228;4.528;2023-08-06T00:13:52;15.60;99.90
42905;DHT22;28550;51.228;4.528;2023-08-06T00:16:24;15.60;99.90
42905;DHT22;28550;51.228;4.528;2023-08-06T00:18:52;15.50;99.90
42905;DHT22;28550;51.228;4.528;2023-08-06T00:21:25;15.50;99.90
42905;DHT22;28550;51.228;4.528;2023-08-06T00:23:52;15.60;99.90
42905;DHT22;28550;51.228;4.528;2023-08-06T00:26:22;15.60;99.90
42905;DHT22;28550;51.228;4.528;2023-08-06T00:28:50;15.60;99.90
42905;DHT22;28550;51.228;4.528;2023-08-06T00:31:18;15.50;99.90
42905;DHT22;28550;51.228;4.528;2023-08-06T00:33:46;15.50;99.90
42905;DHT22;28550;51.228;4.528;2023-08-06T00:36:17;15.50;99.90
42905;DHT22;28550;51.228;4.528;2023-08-06T00:38:45;15.40;99.90
42905;DHT22;28550;51.228;4.528;2023-08-06T00:41:12;15.40;99.90
42905;DHT22;28550;51.228;4.528;2023-08-06T00:43:37;15.30;99.90
42905;DHT22;28550;51.228;4.528;2023-08-06T00:46:07;15.40;99.90
42905;DHT22;28550;51.228;4.528;2023-08-06T00:48:35;15.30;99.90
42905;DHT22;28550;51.228;4.528;2023-08-06T00:51:01;15.30;99.90
42905;DHT22;28550;51.228;4.528;2023-08-06T00:53:28;15.20;99.90
42905;DHT22;28550;51.228;4.528;2023-08-06T00:55:54;15.20;99.90
42905;DHT22;28550;51.228;4.528;2023-08-06T00:58:29;15.20;99.90
42905;DHT22;28550;51.228;4.528;2023-08-06T01:00:58;15.20;99.90
42905;DHT22;28550;51.228;4.528;2023-08-06T01:03:27;15.20;99.90
42905;DHT22;28550;51.228;4.528;2023-08-06T01:06:07;15.20;99.90
42905;DHT22;28550;51.228;4.528;2023-08-06T01:08:50;15.20;99.90
42905;DHT22;28550;51.228;4.528;2023-08-06T01:11:38;15.20;99.90
42905;DHT22;28550;51.228;4.528;2023-08-06T01:14:28;15.10;99.90
42905;DHT22;28550;51.228;4.528;2023-08-06T01:16:58;15.20;99.90
42905;DHT22;28550;51.228;4.528;2023-08-06T01:19:26;15.10;99.90
42905;DHT22;28550;51.228;4.528;2023-08-06T01:21:59;15.10;99.90
42905;DHT22;28550;51.228;4.528;2023-08-06T01:24:33;15.10;99.90
42905;DHT22;28550;51.228;4.528;2023-08-06T01:27:13;15.20;99.90
42905;DHT22;28550;51.228;4.528;2023-08-06T01:29:57;15.20;99.90
42905;DHT22;28550;51.228;4.528;2023-08-06T01:32:26;15.30;99.90
42905;DHT22;28550;51.228;4.528;2023-08-06T01:35:04;15.40;99.90
42905;DHT22;28550;51.228;4.528;2023-08-06T01:37:30;15.60;99.90
42905;DHT22;28550;51.228;4.528;2023-08-06T01:40:09;15.70;99.90
42905;DHT22;28550;51.228;4.528;2023-08-06T01:42:42;15.90;99.90
42905;DHT22;28550;51.228;4.528;2023-08-06T01:45:12;15.90;99.90
42905;DHT22;28550;51.228;4.528;2023-08-06T01:47:52;15.80;99.90
42905;DHT22;28550;51.228;4.528;2023-08-06T01:50:19;15.70;99.90
42905;DHT22;28550;51.228;4.528;2023-08-06T01:52:45;15.60;99.90
42905;DHT22;28550;51.228;4.528;2023-08-06T01:55:17;15.60;99.90
42905;DHT22;28550;51.228;4.528;2023-08-06T01:57:48;15.60;99.90
42905;DHT22;28550;51.228;4.528;2023-08-06T02:00:16;15.50;99.90
42905;DHT22;28550;51.228;4.528;2023-08-06T02:02:48;15.40;99.90
42905;DHT22;28550;51.228;4.528;2023-08-06T02:05:16;15.20;99.90
42905;DHT22;28550;51.228;4.528;2023-08-06T02:07:42;15.30;99.90
42905;DHT22;28550;51.228;4.528;2023-08-06T02:10:10;15.30;99.90
42905;DHT22;28550;51.228;4.528;2023-08-06T02:12:44;15.30;99.90
42905;DHT22;28550;51.228;4.528;2023-08-06T02:15:10;15.30;99.90
42905;DHT22;28550;51.228;4.528;2023-08-06T02:17:37;15.40;99.90
42905;DHT22;28550;51.228;4.528;2023-08-06T02:20:05;15.60;99.90
42905;DHT22;28550;51.228;4.528;2023-08-06T02:22:34;15.70;99.90
42905;DHT22;28550;51.228;4.528;2023-08-06T02:25:24;15.80;99.90
42905;DHT22;28550;51.228;4.528;2023-08-06T02:27:51;16.00;99.90
42905;DHT22;28550;51.228;4.528;2023-08-06T02:30:22;16.10;99.90
42905;DHT22;28550;51.228;4.528;2023-08-06T02:32:53;16.10;99.90
42905;DHT22;28550;51.228;4.528;2023-08-06T02:35:23;16.20;99.90
42905;DHT22;28550;51.228;4.528;2023-08-06T02:37:59;16.20;99.90
42905;DHT22;28550;51.228;4.528;2023-08-06T02:40:24;16.20;99.90
42905;DHT22;28550;51.228;4.528;2023-08-06T02:42:55;16.10;99.90
42905;DHT22;28550;51.228;4.528;2023-08-06T02:45:20;16.20;99.90
42905;DHT22;28550;51.228;4.528;2023-08-06T02:47:48;16.20;99.90
42905;DHT22;28550;51.228;4.528;2023-08-06T02:50:16;16.20;99.90
42905;DHT22;28550;51.228;4.528;2023-08-06T02:52:46;16.20;99.90
42905;DHT22;28550;51.228;4.528;2023-08-06T02:55:28;16.20;99.90
42905;DHT22;28550;51.228;4.528;2023-08-06T02:58:06;16.20;99.90
42905;DHT22;28550;51.228;4.528;2023-08-06T03:01:03;16.20;99.90
42905;DHT22;28550;51.228;4.528;2023-08-06T03:03:32;16.20;99.90
42905;DHT22;28550;51.228;4.528;2023-08-06T03:05:59;16.00;99.90
42905;DHT22;28550;51.228;4.528;2023-08-06T03:08:28;16.10;99.90
42905;DHT22;28550;51.228;4.528;2023-08-06T03:11:16;16.10;99.90
42905;DHT22;28550;51.228;4.528;2023-08-06T03:13:42;16.00;99.90
42905;DHT22;28550;51.228;4.528;2023-08-06T03:16:12;16.00;99.90
42905;DHT22;28550;51.228;4.528;2023-08-06T03:18:39;16.00;99.90
42905;DHT22;28550;51.228;4.528;2023-08-06T03:21:10;16.00;99.90
42905;DHT22;28550;51.228;4.528;2023-08-06T03:23:48;16.00;99.90
42905;DHT22;28550;51.228;4.528;2023-08-06T03:26:15;15.90;99.90
42905;DHT22;28550;51.228;4.528;2023-08-06T03:28:44;15.90;99.90
42905;DHT22;28550;51.228;4.528;2023-08-06T03:31:24;15.90;99.90
42905;DHT22;28550;51.228;4.528;2023-08-06T03:33:57;15.90;99.90
42905;DHT22;28550;51.228;4.528;2023-08-06T03:36:33;15.90;99.90
42905;DHT22;28550;51.228;4.528;2023-08-06T03:39:17;15.80;99.90
42905;DHT22;28550;51.228;4.528;2023-08-06T03:41:45;15.80;99.90
42905;DHT22;28550;51.228;4.528;2023-08-06T03:44:11;15.80;99.90
42905;DHT22;28550;51.228;4.528;2023-08-06T03:46:40;15.90;99.90
42905;DHT22;28550;51.228;4.528;2023-08-06T03:49:11;15.80;99.90
42905;DHT22;28550;51.228;4.528;2023-08-06T03:51:40;15.80;99.90
42905;DHT22;28550;51.228;4.528;2023-08-06T03:54:08;15.80;99.90
42905;DHT22;28550;51.228;4.528;2023-08-06T03:56:37;15.80;99.90
42905;DHT22;28550;51.228;4.528;2023-08-06T03:59:06;15.70;99.90
42905;DHT22;28550;51.228;4.528;2023-08-06T04:01:56;15.70;99.90
42905;DHT22;28550;51.228;4.528;2023-08-06T04:04:31;15.70;99.90
42905;DHT22;28550;51.228;4.528;2023-08-06T04:10:10;15.60;99.90
42905;DHT22;28550;51.228;4.528;2023-08-06T04:12:42;15.50;99.90
42905;DHT22;28550;51.228;4.528;2023-08-06T04:15:20;15.50;99.90
42905;DHT22;28550;51.228;4.528;2023-08-06T04:17:49;15.40;99.90
42905;DHT22;28550;51.228;4.528;2023-08-06T04:20:49;15.40;99.90
42905;DHT22;28550;51.228;4.528;2023-08-06T04:23:31;15.40;99.90
42905;DHT22;28550;51.228;4.528;2023-08-06T04:26:02;15.50;99.90
42905;DHT22;28550;51.228;4.528;2023-08-06T04:28:38;15.40;99.90
42905;DHT22;28550;51.228;4.528;2023-08-06T04:31:10;15.40;99.90
42905;DHT22;28550;51.228;4.528;2023-08-06T04:34:19;15.40;99.90
42905;DHT22;28550;51.228;4.528;2023-08-06T04:37:47;15.20;99.90
42905;DHT22;28550;51.228;4.528;2023-08-06T04:40:37;14.90;99.90
42905;DHT22;28550;51.228;4.528;2023-08-06T04:43:07;14.70;99.90
42905;DHT22;28550;51.228;4.528;2023-08-06T04:45:37;14.60;99.90
42905;DHT22;28550;51.228;4.528;2023-08-06T04:48:04;14.50;99.90
42905;DHT22;28550;51.228;4.528;2023-08-06T04:50:36;14.50;99.90
42905;DHT22;28550;51.228;4.528;2023-08-06T04:53:04;14.50;99.90
42905;DHT22;28550;51.228;4.528;2023-08-06T04:55:30;14.50;99.90
42905;DHT22;28550;51.228;4.528;2023-08-06T04:57:58;14.50;99.90
42905;DHT22;28550;51.228;4.528;2023-08-06T05:00:24;14.50;99.90
42905;DHT22;28550;51.228;4.528;2023-08-06T05:02:53;14.50;99.90
42905;DHT22;28550;51.228;4.528;2023-08-06T05:05:23;14.40;99.90
42905;DHT22;28550;51.228;4.528;2023-08-06T05:07:49;14.40;99.90
42905;DHT22;28550;51.228;4.528;2023-08-06T05:10:15;14.40;99.90
42905;DHT22;28550;51.228;4.528;2023-08-06T05:12:44;14.50;99.90
42905;DHT22;28550;51.228;4.528;2023-08-06T05:15:14;14.50;99.90
42905;DHT22;28550;51.228;4.528;2023-08-06T05:17:41;14.60;99.90
42905;DHT22;28550;51.228;4.528;2023-08-06T05:20:07;14.50;99.90
42905;DHT22;28550;51.228;4.528;2023-08-06T05:22:33;14.50;99.90
42905;DHT22;28550;51.228;4.528;2023-08-06T05:25:13;14.50;99.90
42905;DHT22;28550;51.228;4.528;2023-08-06T05:27:41;14.50;99.90
42905;DHT22;28550;51.228;4.528;2023-08-06T05:30:10;14.50;99.90
42905;DHT22;28550;51.228;4.528;2023-08-06T05:32:36;14.50;99.90
42905;DHT22;28550;51.228;4.528;2023-08-06T05:35:02;14.40;99.90
42905;DHT22;28550;51.228;4.528;2023-08-06T05:37:39;14.40;99.90
42905;DHT22;28550;51.228;4.528;2023-08-06T05:40:14;14.40;99.90
42905;DHT22;28550;51.228;4.528;2023-08-06T05:42:42;14.40;99.90
42905;DHT22;28550;51.228;4.528;2023-08-06T05:45:08;14.50;99.90
42905;DHT22;28550;51.228;4.528;2023-08-06T05:47:41;14.50;99.90
42905;DHT22;28550;51.228;4.528;2023-08-06T05:50:07;14.50;99.90
42905;DHT22;28550;51.228;4.528;2023-08-06T05:52:46;14.60;99.90
42905;DHT22;28550;51.228;4.528;2023-08-06T05:55:12;14.60;99.90
42905;DHT22;28550;51.228;4.528;2023-08-06T05:57:38;14.60;99.90
42905;DHT22;28550;51.228;4.528;2023-08-06T06:00:07;14.50;99.90
42905;DHT22;28550;51.228;4.528;2023-08-06T06:02:36;14.50;99.90
42905;DHT22;28550;51.228;4.528;2023-08-06T06:05:04;14.50;99.90
42905;DHT22;28550;51.228;4.528;2023-08-06T06:07:31;14.50;99.90
42905;DHT22;28550;51.228;4.528;2023-08-06T06:09:58;14.50;99.90
42905;DHT22;28550;51.228;4.528;2023-08-06T06:12:30;14.50;99.90
42905;DHT22;28550;51.228;4.528;2023-08-06T06:14:55;14.50;99.90
42905;DHT22;28550;51.228;4.528;2023-08-06T06:17:22;14.50;99.90
42905;DHT22;28550;51.228;4.528;2023-08-06T06:19:54;14.40;99.90
42905;DHT22;28550;51.228;4.528;2023-08-06T06:22:20;14.40;99.90
42905;DHT22;28550;51.228;4.528;2023-08-06T06:24:51;14.40;99.90
42905;DHT22;28550;51.228;4.528;2023-08-06T06:27:17;14.40;99.90
42905;DHT22;28550;51.228;4.528;2023-08-06T06:30:09;14.40;99.90
42905;DHT22;28550;51.228;4.528;2023-08-06T06:32:35;14.40;99.90
42905;DHT22;28550;51.228;4.528;2023-08-06T06:35:04;14.40;99.90
42905;DHT22;28550;51.228;4.528;2023-08-06T06:37:30;14.50;99.90
42905;DHT22;28550;51.228;4.528;2023-08-06T06:40:15;14.50;99.90
42905;DHT22;28550;51.228;4.528;2023-08-06T06:42:51;14.50;99.90
42905;DHT22;28550;51.228;4.528;2023-08-06T06:45:31;14.50;99.90
42905;DHT22;28550;51.228;4.528;2023-08-06T06:47:57;14.50;99.90
42905;DHT22;28550;51.228;4.528;2023-08-06T06:50:29;14.50;99.90
42905;DHT22;28550;51.228;4.528;2023-08-06T06:52:58;14.50;99.90
42905;DHT22;28550;51.228;4.528;2023-08-06T06:55:28;14.60;99.90
42905;DHT22;28550;51.228;4.528;2023-08-06T06:58:08;14.60;99.90
42905;DHT22;28550;51.228;4.528;2023-08-06T07:00:38;14.50;99.90
42905;DHT22;28550;51.228;4.528;2023-08-06T07:03:04;14.50;99.90
42905;DHT22;28550;51.228;4.528;2023-08-06T07:05:29;14.50;99.90
42905;DHT22;28550;51.228;4.528;2023-08-06T07:07:56;14.50;99.90
42905;DHT22;28550;51.228;4.528;2023-08-06T07:10:24;14.50;99.90
42905;DHT22;28550;51.228;4.528;2023-08-06T07:12:53;14.50;99.90
42905;DHT22;28550;51.228;4.528;2023-08-06T07:15:32;14.50;99.90
42905;DHT22;28550;51.228;4.528;2023-08-06T07:18:04;14.50;99.90
42905;DHT22;28550;51.228;4.528;2023-08-06T07:20:31;14.60;99.90
42905;DHT22;28550;51.228;4.528;2023-08-06T07:23:02;14.50;99.90
42905;DHT22;28550;51.228;4.528;2023-08-06T07:25:35;14.50;99.90
42905;DHT22;28550;51.228;4.528;2023-08-06T07:28:01;14.50;99.90
42905;DHT22;28550;51.228;4.528;2023-08-06T07:30:32;14.60;99.90
42905;DHT22;28550;51.228;4.528;2023-08-06T07:32:59;14.60;99.90
42905;DHT22;28550;51.228;4.528;2023-08-06T07:35:25;14.60;99.90
42905;DHT22;28550;51.228;4.528;2023-08-06T07:37:56;14.60;99.90
42905;DHT22;28550;51.228;4.528;2023-08-06T07:40:22;14.60;99.90
42905;DHT22;28550;51.228;4.528;2023-08-06T07:42:50;14.70;99.90
42905;DHT22;28550;51.228;4.528;2023-08-06T07:45:24;14.70;99.90
42905;DHT22;28550;51.228;4.528;2023-08-06T07:48:00;14.60;99.90
42905;DHT22;28550;51.228;4.528;2023-08-06T07:50:30;14.60;99.90
42905;DHT22;28550;51.228;4.528;2023-08-06T07:52:56;14.60;99.90
42905;DHT22;28550;51.228;4.528;2023-08-06T07:55:23;14.50;99.90
42905;DHT22;28550;51.228;4.528;2023-08-06T07:57:55;14.60;99.90
42905;DHT22;28550;51.228;4.528;2023-08-06T08:00:23;14.60;99.90
42905;DHT22;28550;51.228;4.528;2023-08-06T08:02:55;14.80;99.90
42905;DHT22;28550;51.228;4.528;2023-08-06T08:05:21;14.80;99.90
42905;DHT22;28550;51.228;4.528;2023-08-06T08:07:49;14.80;99.90
42905;DHT22;28550;51.228;4.528;2023-08-06T08:10:14;14.80;99.90
42905;DHT22;28550;51.228;4.528;2023-08-06T08:12:41;14.70;99.90
42905;DHT22;28550;51.228;4.528;2023-08-06T08:15:22;14.80;99.90
42905;DHT22;28550;51.228;4.528;2023-08-06T08:17:51;14.90;99.90
42905;DHT22;28550;51.228;4.528;2023-08-06T08:20:17;14.80;99.90
42905;DHT22;28550;51.228;4.528;2023-08-06T08:22:49;14.80;99.90
42905;DHT22;28550;51.228;4.528;2023-08-06T08:25:35;14.80;99.90
42905;DHT22;28550;51.228;4.528;2023-08-06T08:28:07;14.80;99.90
42905;DHT22;28550;51.228;4.528;2023-08-06T08:30:34;14.70;99.90
42905;DHT22;28550;51.228;4.528;2023-08-06T08:33:04;14.70;99.90
42905;DHT22;28550;51.228;4.528;2023-08-06T08:35:33;14.80;99.90
42905;DHT22;28550;51.228;4.528;2023-08-06T08:38:01;14.80;99.90
42905;DHT22;28550;51.228;4.528;2023-08-06T08:40:43;14.80;99.90
42905;DHT22;28550;51.228;4.528;2023-08-06T08:43:15;15.00;99.90
42905;DHT22;28550;51.228;4.528;2023-08-06T08:45:53;15.00;99.90
42905;DHT22;28550;51.228;4.528;2023-08-06T08:48:56;15.10;99.90
42905;DHT22;28550;51.228;4.528;2023-08-06T08:51:52;15.20;99.90
42905;DHT22;28550;51.228;4.528;2023-08-06T08:54:22;15.30;99.90
42905;DHT22;28550;51.228;4.528;2023-08-06T08:56:48;15.50;99.90
42905;DHT22;28550;51.228;4.528;2023-08-06T08:59:19;15.70;99.90
42905;DHT22;28550;51.228;4.528;2023-08-06T09:01:46;15.80;99.90
42905;DHT22;28550;51.228;4.528;2023-08-06T09:04:17;15.90;99.90
42905;DHT22;28550;51.228;4.528;2023-08-06T09:06:50;16.00;99.90
42905;DHT22;28550;51.228;4.528;2023-08-06T09:09:22;15.90;99.90
42905;DHT22;28550;51.228;4.528;2023-08-06T09:11:53;15.90;99.90
42905;DHT22;28550;51.228;4.528;2023-08-06T09:14:40;15.80;99.90
42905;DHT22;28550;51.228;4.528;2023-08-06T09:17:16;15.50;99.90
42905;DHT22;28550;51.228;4.528;2023-08-06T09:19:50;15.20;99.90
42905;DHT22;28550;51.228;4.528;2023-08-06T09:22:16;15.20;99.90
42905;DHT22;28550;51.228;4.528;2023-08-06T09:24:48;15.10;99.90
42905;DHT22;28550;51.228;4.528;2023-08-06T09:27:16;15.10;99.90
42905;DHT22;28550;51.228;4.528;2023-08-06T09:29:46;15.20;99.90
42905;DHT22;28550;51.228;4.528;2023-08-06T09:32:12;15.20;99.90
42905;DHT22;28550;51.228;4.528;2023-08-06T09:34:42;15.30;99.90
42905;DHT22;28550;51.228;4.528;2023-08-06T09:37:11;15.20;99.90
42905;DHT22;28550;51.228;4.528;2023-08-06T09:39:39;15.30;99.90
42905;DHT22;28550;51.228;4.528;2023-08-06T09:42:10;15.20;99.90
42905;DHT22;28550;51.228;4.528;2023-08-06T09:44:51;15.30;99.90
42905;DHT22;28550;51.228;4.528;2023-08-06T09:50:48;15.40;99.90
42905;DHT22;28550;51.228;4.528;2023-08-06T09:53:35;15.40;99.90
42905;DHT22;28550;51.228;4.528;2023-08-06T09:56:01;15.50;99.90
42905;DHT22;28550;51.228;4.528;2023-08-06T09:58:38;15.60;99.90
42905;DHT22;28550;51.228;4.528;2023-08-06T10:01:11;15.50;99.90
42905;DHT22;28550;51.228;4.528;2023-08-06T10:03:58;15.60;99.90
42905;DHT22;28550;51.228;4.528;2023-08-06T10:06:27;15.60;99.90
42905;DHT22;28550;51.228;4.528;2023-08-06T10:09:07;15.50;99.90
42905;DHT22;28550;51.228;4.528;2023-08-06T10:11:51;15.40;99.90
42905;DHT22;28550;51.228;4.528;2023-08-06T10:14:39;15.30;99.90
42905;DHT22;28550;51.228;4.528;2023-08-06T10:17:09;15.10;99.90
42905;DHT22;28550;51.228;4.528;2023-08-06T10:19:59;15.00;99.90
42905;DHT22;28550;51.228;4.528;2023-08-06T10:22:27;14.90;99.90
42905;DHT22;28550;51.228;4.528;2023-08-06T10:24:55;14.90;99.90
42905;DHT22;28550;51.228;4.528;2023-08-06T10:27:40;15.00;99.90
42905;DHT22;28550;51.228;4.528;2023-08-06T10:30:32;15.10;99.90
42905;DHT22;28550;51.228;4.528;2023-08-06T10:33:03;15.20;99.90
42905;DHT22;28550;51.228;4.528;2023-08-06T10:35:45;15.30;99.90
42905;DHT22;28550;51.228;4.528;2023-08-06T10:38:12;15.30;99.90
42905;DHT22;28550;51.228;4.528;2023-08-06T10:44:09;15.20;99.90
42905;DHT22;28550;51.228;4.528;2023-08-06T10:46:55;15.40;99.90
42905;DHT22;28550;51.228;4.528;2023-08-06T10:49:25;15.50;99.90
42905;DHT22;28550;51.228;4.528;2023-08-06T10:51:54;15.50;99.90
42905;DHT22;28550;51.228;4.528;2023-08-06T10:54:29;15.60;99.90
42905;DHT22;28550;51.228;4.528;2023-08-06T10:56:55;15.70;99.90
42905;DHT22;28550;51.228;4.528;2023-08-06T10:59:20;15.70;99.90
42905;DHT22;28550;51.228;4.528;2023-08-06T11:01:48;15.80;99.90
42905;DHT22;28550;51.228;4.528;2023-08-06T11:04:14;15.70;99.90
42905;DHT22;28550;51.228;4.528;2023-08-06T11:06:42;15.70;99.90
42905;DHT22;28550;51.228;4.528;2023-08-06T11:09:19;15.70;99.90
42905;DHT22;28550;51.228;4.528;2023-08-06T11:11:57;15.80;99.90
42905;DHT22;28550;51.228;4.528;2023-08-06T11:14:35;15.80;99.90
42905;DHT22;28550;51.228;4.528;2023-08-06T11:17:17;15.80;99.90
42905;DHT22;28550;51.228;4.528;2023-08-06T11:19:48;15.80;99.90
42905;DHT22;28550;51.228;4.528;2023-08-06T11:22:27;15.70;99.90
42905;DHT22;28550;51.228;4.528;2023-08-06T11:25:02;15.70;99.90
42905;DHT22;28550;51.228;4.528;2023-08-06T11:27:28;15.70;99.90
42905;DHT22;28550;51.228;4.528;2023-08-06T11:29:59;15.80;99.90
42905;DHT22;28550;51.228;4.528;2023-08-06T11:32:31;15.80;99.90
42905;DHT22;28550;51.228;4.528;2023-08-06T11:35:08;15.70;99.90
42905;DHT22;28550;51.228;4.528;2023-08-06T11:37:34;15.70;99.90
42905;DHT22;28550;51.228;4.528;2023-08-06T11:40:01;15.80;99.90
42905;DHT22;28550;51.228;4.528;2023-08-06T11:42:31;15.80;99.90
42905;DHT22;28550;51.228;4.528;2023-08-06T11:44:58;15.70;99.90
42905;DHT22;28550;51.228;4.528;2023-08-06T11:47:26;15.80;99.90
42905;DHT22;28550;51.228;4.528;2023-08-06T11:49:54;15.80;99.90
42905;DHT22;28550;51.228;4.528;2023-08-06T11:52:24;16.00;99.90
42905;DHT22;28550;51.228;4.528;2023-08-06T11:55:03;16.00;99.90
42905;DHT22;28550;51.228;4.528;2023-08-06T11:57:32;16.00;99.90
42905;DHT22;28550;51.228;4.528;2023-08-06T12:00:11;15.80;99.50
42905;DHT22;28550;51.228;4.528;2023-08-06T12:02:42;15.80;99.90
42905;DHT22;28550;51.228;4.528;2023-08-06T12:05:19;15.70;99.90
42905;DHT22;28550;51.228;4.528;2023-08-06T12:07:54;15.80;99.90
42905;DHT22;28550;51.228;4.528;2023-08-06T12:10:22;16.00;99.90
42905;DHT22;28550;51.228;4.528;2023-08-06T12:12:49;16.00;99.10
42905;DHT22;28550;51.228;4.528;2023-08-06T12:15:24;15.80;99.20
42905;DHT22;28550;51.228;4.528;2023-08-06T12:17:55;15.90;99.90
42905;DHT22;28550;51.228;4.528;2023-08-06T12:21:20;15.70;99.90
42905;DHT22;28550;51.228;4.528;2023-08-06T12:24:01;15.60;99.90
42905;DHT22;28550;51.228;4.528;2023-08-06T12:26:40;15.40;99.90
42905;DHT22;28550;51.228;4.528;2023-08-06T12:29:05;15.30;99.90
42905;DHT22;28550;51.228;4.528;2023-08-06T12:31:34;15.20;99.90
42905;DHT22;28550;51.228;4.528;2023-08-06T12:34:04;15.10;99.90
42905;DHT22;28550;51.228;4.528;2023-08-06T12:36:36;15.10;99.90
42905;DHT22;28550;51.228;4.528;2023-08-06T12:39:25;15.00;99.90
42905;DHT22;28550;51.228;4.528;2023-08-06T12:41:56;15.00;99.90
42905;DHT22;28550;51.228;4.528;2023-08-06T12:44:27;15.00;99.90
42905;DHT22;28550;51.228;4.528;2023-08-06T12:46:53;15.00;99.90
42905;DHT22;28550;51.228;4.528;2023-08-06T12:49:38;14.90;99.90
42905;DHT22;28550;51.228;4.528;2023-08-06T12:52:09;14.70;99.90
42905;DHT22;28550;51.228;4.528;2023-08-06T12:54:37;14.70;99.90
42905;DHT22;28550;51.228;4.528;2023-08-06T12:57:10;14.70;99.90
42905;DHT22;28550;51.228;4.528;2023-08-06T12:59:36;14.70;99.90
42905;DHT22;28550;51.228;4.528;2023-08-06T13:02:19;14.60;99.90
42905;DHT22;28550;51.228;4.528;2023-08-06T13:04:51;14.50;99.90
42905;DHT22;28550;51.228;4.528;2023-08-06T13:07:21;14.50;99.90
42905;DHT22;28550;51.228;4.528;2023-08-06T13:10:18;14.50;99.90
42905;DHT22;28550;51.228;4.528;2023-08-06T13:12:54;14.50;99.90
42905;DHT22;28550;51.228;4.528;2023-08-06T13:15:26;14.60;99.90
42905;DHT22;28550;51.228;4.528;2023-08-06T13:20:59;14.70;99.90
42905;DHT22;28550;51.228;4.528;2023-08-06T13:23:33;14.70;99.90
42905;DHT22;28550;51.228;4.528;2023-08-06T13:26:01;14.70;99.90
42905;DHT22;28550;51.228;4.528;2023-08-06T13:28:31;14.50;99.90
42905;DHT22;28550;51.228;4.528;2023-08-06T13:31:26;14.50;99.90
42905;DHT22;28550;51.228;4.528;2023-08-06T13:34:05;14.40;99.90
42905;DHT22;28550;51.228;4.528;2023-08-06T13:36:33;14.30;99.90
42905;DHT22;28550;51.228;4.528;2023-08-06T13:39:01;14.30;99.90
42905;DHT22;28550;51.228;4.528;2023-08-06T13:41:37;14.20;99.90
42905;DHT22;28550;51.228;4.528;2023-08-06T13:44:03;14.20;99.90
42905;DHT22;28550;51.228;4.528;2023-08-06T13:46:33;14.20;99.90
42905;DHT22;28550;51.228;4.528;2023-08-06T13:49:02;14.20;99.90
42905;DHT22;28550;51.228;4.528;2023-08-06T13:51:30;14.20;99.90
42905;DHT22;28550;51.228;4.528;2023-08-06T13:54:00;14.30;99.90
42905;DHT22;28550;51.228;4.528;2023-08-06T13:56:37;14.30;99.90
42905;DHT22;28550;51.228;4.528;2023-08-06T13:59:03;14.30;99.90
42905;DHT22;28550;51.228;4.528;2023-08-06T14:01:30;14.30;99.90
42905;DHT22;28550;51.228;4.528;2023-08-06T14:04:02;14.30;99.90
42905;DHT22;28550;51.228;4.528;2023-08-06T14:06:46;14.20;99.90
42905;DHT22;28550;51.228;4.528;2023-08-06T14:09:12;14.20;99.90
42905;DHT22;28550;51.228;4.528;2023-08-06T14:11:42;14.20;99.90
42905;DHT22;28550;51.228;4.528;2023-08-06T14:14:39;14.10;99.90
42905;DHT22;28550;51.228;4.528;2023-08-06T14:17:16;14.10;99.90
42905;DHT22;28550;51.228;4.528;2023-08-06T14:19:46;14.20;99.90
42905;DHT22;28550;51.228;4.528;2023-08-06T14:22:38;14.20;99.90
42905;DHT22;28550;51.228;4.528;2023-08-06T14:25:07;14.30;99.90
42905;DHT22;28550;51.228;4.528;2023-08-06T14:28:11;14.30;99.90
42905;DHT22;28550;51.228;4.528;2023-08-06T14:30:56;14.30;99.90
42905;DHT22;28550;51.228;4.528;2023-08-06T14:33:41;14.30;99.90
42905;DHT22;28550;51.228;4.528;2023-08-06T14:36:28;14.40;99.90
42905;DHT22;28550;51.228;4.528;2023-08-06T14:39:10;14.50;99.90
42905;DHT22;28550;51.228;4.528;2023-08-06T14:42:00;14.50;99.90
42905;DHT22;28550;51.228;4.528;2023-08-06T14:44:47;14.70;99.90
42905;DHT22;28550;51.228;4.528;2023-08-06T14:47:28;14.80;99.90
42905;DHT22;28550;51.228;4.528;2023-08-06T14:50:17;14.80;99.90
42905;DHT22;28550;51.228;4.528;2023-08-06T14:53:00;14.90;99.90
42905;DHT22;28550;51.228;4.528;2023-08-06T14:55:51;14.90;99.90
42905;DHT22;28550;51.228;4.528;2023-08-06T14:58:40;15.00;99.90
42905;DHT22;28550;51.228;4.528;2023-08-06T15:01:08;14.90;99.90
42905;DHT22;28550;51.228;4.528;2023-08-06T15:03:39;14.90;99.90
42905;DHT22;28550;51.228;4.528;2023-08-06T15:06:07;14.90;99.90
42905;DHT22;28550;51.228;4.528;2023-08-06T15:08:41;14.90;99.90
42905;DHT22;28550;51.228;4.528;2023-08-06T15:11:20;14.80;99.90
42905;DHT22;28550;51.228;4.528;2023-08-06T15:13:55;14.70;99.90
42905;DHT22;28550;51.228;4.528;2023-08-06T15:19:07;14.60;99.90
42905;DHT22;28550;51.228;4.528;2023-08-06T15:22:00;14.60;99.90
42905;DHT22;28550;51.228;4.528;2023-08-06T15:27:21;14.60;99.90
42905;DHT22;28550;51.228;4.528;2023-08-06T15:29:47;14.60;99.90
42905;DHT22;28550;51.228;4.528;2023-08-06T15:32:15;14.60;99.90
42905;DHT22;28550;51.228;4.528;2023-08-06T15:35:02;14.50;99.90
42905;DHT22;28550;51.228;4.528;2023-08-06T15:37:38;14.50;99.90
42905;DHT22;28550;51.228;4.528;2023-08-06T15:40:13;14.40;99.90
42905;DHT22;28550;51.228;4.528;2023-08-06T15:43:00;14.50;99.90
42905;DHT22;28550;51.228;4.528;2023-08-06T15:45:36;14.40;99.90
42905;DHT22;28550;51.228;4.528;2023-08-06T15:48:25;14.30;99.90
42905;DHT22;28550;51.228;4.528;2023-08-06T15:51:34;14.30;99.90
42905;DHT22;28550;51.228;4.528;2023-08-06T15:54:26;14.40;99.90
42905;DHT22;28550;51.228;4.528;2023-08-06T15:57:23;14.40;99.90
42905;DHT22;28550;51.228;4.528;2023-08-06T16:00:26;14.40;99.90
42905;DHT22;28550;51.228;4.528;2023-08-06T16:03:14;14.30;99.90
42905;DHT22;28550;51.228;4.528;2023-08-06T16:05:41;14.30;99.90
42905;DHT22;28550;51.228;4.528;2023-08-06T16:08:33;14.30;99.90
42905;DHT22;28550;51.228;4.528;2023-08-06T16:11:29;14.30;99.90
42905;DHT22;28550;51.228;4.528;2023-08-06T16:14:02;14.50;99.90
42905;DHT22;28550;51.228;4.528;2023-08-06T16:20:05;14.60;99.90
42905;DHT22;28550;51.228;4.528;2023-08-06T16:22:54;14.70;99.90
42905;DHT22;28550;51.228;4.528;2023-08-06T16:25:26;14.80;99.90
42905;DHT22;28550;51.228;4.528;2023-08-06T16:28:04;14.80;99.90
42905;DHT22;28550;51.228;4.528;2023-08-06T16:31:05;14.90;99.90
42905;DHT22;28550;51.228;4.528;2023-08-06T16:33:36;15.00;99.90